This is the latest recevied weather packets stored in our database for station/object N1ORT. If no packets are shown the sender has not sent any weather packets the latest 1 day(s).
| Time | Temp. | Humidity | Pressure | Rain* | Wind** | Luminosity | Snow |
|---|---|---|---|---|---|---|---|
| 1778048958 | 17.22° C | 70% | 1007.1 hPa | 0 mm | 0.89 m/s, 238° | 0 W/m² | - |
| 1778048656 | 17.22° C | 69% | 1007.1 hPa | 0 mm | 0.89 m/s, 39° | 0 W/m² | - |
| 1778048352 | 17.22° C | 69% | 1007.2 hPa | 0 mm | 0.89 m/s, 0° | 0 W/m² | - |
| 1778048049 | 17.22° C | 68% | 1007 hPa | 0 mm | 1.34 m/s, 36° | 0 W/m² | - |
| 1778047747 | 17.22° C | 68% | 1006.8 hPa | 0 mm | 0.89 m/s, 75° | 0 W/m² | - |
| 1778047444 | 17.22° C | 68% | 1007.1 hPa | 0 mm | 1.34 m/s, 203° | 0 W/m² | - |
| 1778047141 | 17.22° C | 68% | 1007.3 hPa | 0 mm | 0.89 m/s, 3° | 0 W/m² | - |
| 1778046838 | 17.22° C | 67% | 1007.1 hPa | 0 mm | 1.34 m/s, 322° | 0 W/m² | - |
| 1778046535 | 17.22° C | 68% | 1007.1 hPa | 0 mm | 1.34 m/s, 40° | 0 W/m² | - |
| 1778046232 | 17.22° C | 68% | 1007.3 hPa | 0 mm | 1.34 m/s, 99° | 0 W/m² | - |
| 1778045928 | 17.22° C | 68% | 1007.3 hPa | 0 mm | 1.34 m/s, 234° | 0 W/m² | - |
| 1778045627 | 17.22° C | 68% | 1007.2 hPa | 0 mm | 0.89 m/s, 82° | 0 W/m² | - |
| 1778045325 | 17.22° C | 68% | 1007.5 hPa | 0 mm | 1.34 m/s, 87° | 0 W/m² | - |
| 1778045023 | 17.22° C | 68% | 1007.3 hPa | 0 mm | 0.89 m/s, 47° | 0 W/m² | - |
| 1778044720 | 17.22° C | 68% | 1007.4 hPa | 0 mm | 1.34 m/s, 317° | 0 W/m² | - |
| 1778044416 | 17.22° C | 67% | 1007.5 hPa | 0 mm | 0.45 m/s, 295° | 0 W/m² | - |
| 1778044114 | 17.22° C | 68% | 1007.5 hPa | 0 mm | 0.89 m/s, 282° | 0 W/m² | - |
| 1778043811 | 17.22° C | 67% | 1007.6 hPa | 0 mm | 1.79 m/s, 256° | 0 W/m² | - |
| 1778043508 | 17.22° C | 67% | 1007.8 hPa | 0 mm | 1.79 m/s, 271° | 0 W/m² | - |
| 1778043205 | 17.22° C | 68% | 1007.5 hPa | 0 mm | 0.45 m/s, 269° | 0 W/m² | - |
| 1778042902 | 17.22° C | 67% | 1007.9 hPa | 0 mm | 0.89 m/s, 261° | 0 W/m² | - |
| 1778042600 | 17.22° C | 67% | 1008 hPa | 0 mm | 1.34 m/s, 84° | 0 W/m² | - |
| 1778042296 | 17.22° C | 66% | 1007.5 hPa | 0 mm | 0.45 m/s, 92° | 0 W/m² | - |
| 1778041994 | 17.22° C | 66% | 1007.6 hPa | 0 mm | 0.89 m/s, 239° | 0 W/m² | - |
| 1778041692 | 17.78° C | 66% | 1007.5 hPa | 0 mm | 0 m/s | 0 W/m² | - |
* Rain latest hour (hover to see other rain measurements)
** Current wind speed in m/s (hover to see current wind gust speed)